Anderson Springs, California
Current Conditions -  °F | °C
As of 11:53 AM on Thursday 27 Nov 2014 (Local Time) from KSTS Reporting Station
Broken Clouds Broken Clouds  
Wind Chill: 17°   Ceiling: 25000
Heat Index: 17°   Visibility: 10mi
Dew Point:   Wind: 0mph
Humidity: 58%   Direction: NA
Pressure: 30.14"   Gusts: NA
Location:  38.7763°N, 122.598°W
Report Text: KSTS 271953Z 00000KT 10SM BKN250 17/08 A3014 RMK AO2 SLP199 T01670083
Loading
Personal Weather Stations






























Interactive Weather Map New forecast layout! Learn more

10-Day Weather Forecast

Advertisements
Track Severe Weather on mobile